sensor_id;sensor_type;location;lat;lon;timestamp;P1;durP1;ratioP1;P2;durP2;ratioP2
37199;SDS011;23096;50.892;16.746;2024-02-23T00:01:15;0.50;;;0.50;;
37199;SDS011;23096;50.892;16.746;2024-02-23T00:03:40;0.60;;;0.60;;
37199;SDS011;23096;50.892;16.746;2024-02-23T00:06:06;1.50;;;0.70;;
37199;SDS011;23096;50.892;16.746;2024-02-23T00:08:32;1.10;;;0.90;;
37199;SDS011;23096;50.892;16.746;2024-02-23T00:10:57;1.20;;;0.80;;
37199;SDS011;23096;50.892;16.746;2024-02-23T00:13:23;0.70;;;0.70;;
37199;SDS011;23096;50.892;16.746;2024-02-23T00:15:48;1.20;;;0.90;;
37199;SDS011;23096;50.892;16.746;2024-02-23T00:18:14;1.60;;;1.00;;
37199;SDS011;23096;50.892;16.746;2024-02-23T00:20:41;1.00;;;0.90;;
37199;SDS011;23096;50.892;16.746;2024-02-23T00:23:07;1.20;;;0.80;;
37199;SDS011;23096;50.892;16.746;2024-02-23T00:25:32;1.40;;;0.80;;
37199;SDS011;23096;50.892;16.746;2024-02-23T00:27:58;1.00;;;0.70;;
37199;SDS011;23096;50.892;16.746;2024-02-23T00:30:23;0.80;;;0.80;;
37199;SDS011;23096;50.892;16.746;2024-02-23T00:32:49;0.50;;;0.50;;
37199;SDS011;23096;50.892;16.746;2024-02-23T00:35:14;1.30;;;1.00;;
37199;SDS011;23096;50.892;16.746;2024-02-23T00:37:40;1.20;;;0.70;;
37199;SDS011;23096;50.892;16.746;2024-02-23T00:40:05;2.10;;;1.00;;
37199;SDS011;23096;50.892;16.746;2024-02-23T00:42:31;0.70;;;0.70;;
37199;SDS011;23096;50.892;16.746;2024-02-23T00:44:57;1.20;;;0.50;;
37199;SDS011;23096;50.892;16.746;2024-02-23T00:47:22;0.70;;;0.70;;
37199;SDS011;23096;50.892;16.746;2024-02-23T00:49:48;0.60;;;0.60;;
37199;SDS011;23096;50.892;16.746;2024-02-23T00:52:14;0.40;;;0.40;;
37199;SDS011;23096;50.892;16.746;2024-02-23T00:54:40;0.80;;;0.80;;
37199;SDS011;23096;50.892;16.746;2024-02-23T00:57:05;1.10;;;0.90;;
37199;SDS011;23096;50.892;16.746;2024-02-23T00:59:31;0.90;;;0.80;;
37199;SDS011;23096;50.892;16.746;2024-02-23T01:01:57;0.70;;;0.60;;
37199;SDS011;23096;50.892;16.746;2024-02-23T01:04:22;0.80;;;0.80;;
37199;SDS011;23096;50.892;16.746;2024-02-23T01:06:48;1.60;;;0.90;;
37199;SDS011;23096;50.892;16.746;2024-02-23T01:09:13;1.80;;;0.70;;
37199;SDS011;23096;50.892;16.746;2024-02-23T01:11:41;0.90;;;0.90;;
37199;SDS011;23096;50.892;16.746;2024-02-23T01:14:06;0.80;;;0.80;;
37199;SDS011;23096;50.892;16.746;2024-02-23T01:16:32;0.90;;;0.70;;
37199;SDS011;23096;50.892;16.746;2024-02-23T01:18:57;1.10;;;0.90;;
37199;SDS011;23096;50.892;16.746;2024-02-23T01:21:23;1.10;;;1.10;;
37199;SDS011;23096;50.892;16.746;2024-02-23T01:23:48;1.20;;;0.90;;
37199;SDS011;23096;50.892;16.746;2024-02-23T01:26:14;1.10;;;0.80;;
37199;SDS011;23096;50.892;16.746;2024-02-23T01:28:40;2.20;;;0.90;;
37199;SDS011;23096;50.892;16.746;2024-02-23T01:31:08;1.30;;;0.60;;
37199;SDS011;23096;50.892;16.746;2024-02-23T01:33:36;1.20;;;0.90;;
37199;SDS011;23096;50.892;16.746;2024-02-23T01:36:04;0.80;;;0.80;;
37199;SDS011;23096;50.892;16.746;2024-02-23T01:38:30;1.70;;;1.00;;
37199;SDS011;23096;50.892;16.746;2024-02-23T01:40:58;1.20;;;1.00;;
37199;SDS011;23096;50.892;16.746;2024-02-23T01:43:26;2.80;;;1.30;;
37199;SDS011;23096;50.892;16.746;2024-02-23T01:45:52;1.50;;;1.00;;
37199;SDS011;23096;50.892;16.746;2024-02-23T01:48:19;1.40;;;1.30;;
37199;SDS011;23096;50.892;16.746;2024-02-23T01:50:45;1.70;;;1.20;;
37199;SDS011;23096;50.892;16.746;2024-02-23T01:53:12;1.70;;;1.20;;
37199;SDS011;23096;50.892;16.746;2024-02-23T01:55:41;1.40;;;1.20;;
37199;SDS011;23096;50.892;16.746;2024-02-23T01:58:07;1.30;;;1.20;;
37199;SDS011;23096;50.892;16.746;2024-02-23T02:00:34;1.60;;;1.50;;
37199;SDS011;23096;50.892;16.746;2024-02-23T02:03:00;1.70;;;1.50;;
37199;SDS011;23096;50.892;16.746;2024-02-23T02:05:26;1.50;;;1.20;;
37199;SDS011;23096;50.892;16.746;2024-02-23T02:07:51;2.10;;;1.70;;
37199;SDS011;23096;50.892;16.746;2024-02-23T02:10:24;1.50;;;1.40;;
37199;SDS011;23096;50.892;16.746;2024-02-23T02:12:50;4.70;;;2.10;;
37199;SDS011;23096;50.892;16.746;2024-02-23T02:15:16;2.80;;;1.90;;
37199;SDS011;23096;50.892;16.746;2024-02-23T02:17:42;2.00;;;1.80;;
37199;SDS011;23096;50.892;16.746;2024-02-23T02:20:10;2.20;;;1.80;;
37199;SDS011;23096;50.892;16.746;2024-02-23T02:22:37;1.80;;;1.70;;
37199;SDS011;23096;50.892;16.746;2024-02-23T02:25:03;2.60;;;1.90;;
37199;SDS011;23096;50.892;16.746;2024-02-23T02:27:29;1.90;;;1.70;;
37199;SDS011;23096;50.892;16.746;2024-02-23T02:29:55;2.00;;;1.80;;
37199;SDS011;23096;50.892;16.746;2024-02-23T02:32:20;1.80;;;1.60;;
37199;SDS011;23096;50.892;16.746;2024-02-23T02:34:46;2.20;;;2.00;;
37199;SDS011;23096;50.892;16.746;2024-02-23T02:37:11;2.60;;;2.10;;
37199;SDS011;23096;50.892;16.746;2024-02-23T02:39:37;1.80;;;1.50;;
37199;SDS011;23096;50.892;16.746;2024-02-23T02:42:03;2.10;;;1.40;;
37199;SDS011;23096;50.892;16.746;2024-02-23T02:44:28;1.60;;;1.40;;
37199;SDS011;23096;50.892;16.746;2024-02-23T02:46:56;2.80;;;1.30;;
37199;SDS011;23096;50.892;16.746;2024-02-23T02:49:22;2.30;;;1.70;;
37199;SDS011;23096;50.892;16.746;2024-02-23T02:51:48;1.70;;;1.50;;
37199;SDS011;23096;50.892;16.746;2024-02-23T02:54:13;3.10;;;1.40;;
37199;SDS011;23096;50.892;16.746;2024-02-23T02:56:42;1.40;;;1.30;;
37199;SDS011;23096;50.892;16.746;2024-02-23T02:59:09;1.20;;;1.10;;
37199;SDS011;23096;50.892;16.746;2024-02-23T03:01:35;1.50;;;1.30;;
37199;SDS011;23096;50.892;16.746;2024-02-23T03:04:01;1.90;;;1.40;;
37199;SDS011;23096;50.892;16.746;2024-02-23T03:06:27;1.80;;;1.40;;
37199;SDS011;23096;50.892;16.746;2024-02-23T03:08:52;1.10;;;1.00;;
37199;SDS011;23096;50.892;16.746;2024-02-23T03:11:18;0.90;;;0.90;;
37199;SDS011;23096;50.892;16.746;2024-02-23T03:13:43;5.00;;;1.30;;
37199;SDS011;23096;50.892;16.746;2024-02-23T03:16:16;1.70;;;1.10;;
37199;SDS011;23096;50.892;16.746;2024-02-23T03:18:42;2.40;;;1.20;;
37199;SDS011;23096;50.892;16.746;2024-02-23T03:21:08;1.10;;;1.00;;
37199;SDS011;23096;50.892;16.746;2024-02-23T03:23:35;1.80;;;1.30;;
37199;SDS011;23096;50.892;16.746;2024-02-23T03:26:01;1.90;;;1.30;;
37199;SDS011;23096;50.892;16.746;2024-02-23T03:28:27;1.80;;;1.70;;
37199;SDS011;23096;50.892;16.746;2024-02-23T03:30:53;1.60;;;1.30;;
37199;SDS011;23096;50.892;16.746;2024-02-23T03:33:18;1.30;;;1.10;;
37199;SDS011;23096;50.892;16.746;2024-02-23T03:35:44;1.50;;;1.40;;
37199;SDS011;23096;50.892;16.746;2024-02-23T03:38:09;2.10;;;1.70;;
37199;SDS011;23096;50.892;16.746;2024-02-23T03:40:35;1.60;;;1.50;;
37199;SDS011;23096;50.892;16.746;2024-02-23T03:43:01;1.60;;;1.40;;
37199;SDS011;23096;50.892;16.746;2024-02-23T03:45:27;1.40;;;1.10;;
37199;SDS011;23096;50.892;16.746;2024-02-23T03:47:53;1.80;;;1.30;;
37199;SDS011;23096;50.892;16.746;2024-02-23T03:50:19;1.50;;;1.30;;
37199;SDS011;23096;50.892;16.746;2024-02-23T03:52:44;1.20;;;1.10;;
37199;SDS011;23096;50.892;16.746;2024-02-23T03:55:10;1.60;;;1.00;;
37199;SDS011;23096;50.892;16.746;2024-02-23T03:57:36;1.20;;;1.00;;
37199;SDS011;23096;50.892;16.746;2024-02-23T04:00:01;1.20;;;1.10;;
37199;SDS011;23096;50.892;16.746;2024-02-23T04:02:38;1.40;;;1.30;;
37199;SDS011;23096;50.892;16.746;2024-02-23T04:05:04;1.70;;;1.30;;
37199;SDS011;23096;50.892;16.746;2024-02-23T04:07:30;1.50;;;1.40;;
37199;SDS011;23096;50.892;16.746;2024-02-23T04:09:57;2.00;;;1.70;;
37199;SDS011;23096;50.892;16.746;2024-02-23T04:12:23;1.50;;;1.40;;
37199;SDS011;23096;50.892;16.746;2024-02-23T04:14:49;1.50;;;1.40;;
37199;SDS011;23096;50.892;16.746;2024-02-23T04:17:15;2.10;;;1.40;;
37199;SDS011;23096;50.892;16.746;2024-02-23T04:19:41;1.60;;;1.20;;
37199;SDS011;23096;50.892;16.746;2024-02-23T04:22:07;2.30;;;1.80;;
37199;SDS011;23096;50.892;16.746;2024-02-23T04:24:38;3.00;;;1.80;;
37199;SDS011;23096;50.892;16.746;2024-02-23T04:27:04;2.50;;;2.10;;
37199;SDS011;23096;50.892;16.746;2024-02-23T04:29:30;1.30;;;1.20;;
37199;SDS011;23096;50.892;16.746;2024-02-23T04:31:57;1.80;;;1.70;;
37199;SDS011;23096;50.892;16.746;2024-02-23T04:34:23;2.10;;;1.60;;
37199;SDS011;23096;50.892;16.746;2024-02-23T04:36:49;2.30;;;2.00;;
37199;SDS011;23096;50.892;16.746;2024-02-23T04:39:14;2.20;;;2.00;;
37199;SDS011;23096;50.892;16.746;2024-02-23T04:41:40;1.90;;;1.60;;
37199;SDS011;23096;50.892;16.746;2024-02-23T04:44:05;1.90;;;1.70;;
37199;SDS011;23096;50.892;16.746;2024-02-23T04:46:31;1.50;;;1.40;;
37199;SDS011;23096;50.892;16.746;2024-02-23T04:48:59;1.90;;;1.70;;
37199;SDS011;23096;50.892;16.746;2024-02-23T04:51:25;2.10;;;1.60;;
37199;SDS011;23096;50.892;16.746;2024-02-23T04:53:51;3.30;;;1.60;;
37199;SDS011;23096;50.892;16.746;2024-02-23T04:56:16;2.20;;;1.60;;
37199;SDS011;23096;50.892;16.746;2024-02-23T04:58:43;2.30;;;1.40;;
37199;SDS011;23096;50.892;16.746;2024-02-23T05:01:09;2.30;;;1.50;;
37199;SDS011;23096;50.892;16.746;2024-02-23T05:03:35;2.20;;;1.50;;
37199;SDS011;23096;50.892;16.746;2024-02-23T05:06:02;1.60;;;1.50;;
37199;SDS011;23096;50.892;16.746;2024-02-23T05:08:28;2.50;;;1.70;;
37199;SDS011;23096;50.892;16.746;2024-02-23T05:10:55;2.10;;;1.50;;
37199;SDS011;23096;50.892;16.746;2024-02-23T05:13:24;1.60;;;1.40;;
37199;SDS011;23096;50.892;16.746;2024-02-23T05:15:50;1.70;;;1.40;;
37199;SDS011;23096;50.892;16.746;2024-02-23T05:18:15;2.20;;;1.50;;
37199;SDS011;23096;50.892;16.746;2024-02-23T05:20:41;2.50;;;1.40;;
37199;SDS011;23096;50.892;16.746;2024-02-23T05:23:07;1.60;;;1.50;;
37199;SDS011;23096;50.892;16.746;2024-02-23T05:25:32;1.40;;;1.30;;
37199;SDS011;23096;50.892;16.746;2024-02-23T05:27:58;1.40;;;1.20;;
37199;SDS011;23096;50.892;16.746;2024-02-23T05:30:24;2.10;;;1.60;;
37199;SDS011;23096;50.892;16.746;2024-02-23T05:32:51;1.80;;;1.40;;
37199;SDS011;23096;50.892;16.746;2024-02-23T05:35:17;1.40;;;1.20;;
37199;SDS011;23096;50.892;16.746;2024-02-23T05:37:42;1.50;;;1.30;;
37199;SDS011;23096;50.892;16.746;2024-02-23T05:40:08;2.10;;;1.60;;
37199;SDS011;23096;50.892;16.746;2024-02-23T05:42:37;4.10;;;2.10;;
37199;SDS011;23096;50.892;16.746;2024-02-23T05:45:03;2.10;;;1.80;;
37199;SDS011;23096;50.892;16.746;2024-02-23T05:47:30;2.60;;;1.90;;
37199;SDS011;23096;50.892;16.746;2024-02-23T05:49:56;2.40;;;1.70;;
37199;SDS011;23096;50.892;16.746;2024-02-23T05:52:22;2.60;;;2.10;;
37199;SDS011;23096;50.892;16.746;2024-02-23T05:54:47;2.10;;;1.60;;
37199;SDS011;23096;50.892;16.746;2024-02-23T05:57:13;2.10;;;1.60;;
37199;SDS011;23096;50.892;16.746;2024-02-23T05:59:39;1.90;;;1.50;;
37199;SDS011;23096;50.892;16.746;2024-02-23T06:02:04;2.40;;;1.70;;
37199;SDS011;23096;50.892;16.746;2024-02-23T06:04:31;3.40;;;1.40;;
37199;SDS011;23096;50.892;16.746;2024-02-23T06:06:56;2.00;;;1.80;;
37199;SDS011;23096;50.892;16.746;2024-02-23T06:09:22;2.10;;;1.30;;
37199;SDS011;23096;50.892;16.746;2024-02-23T06:11:47;1.50;;;1.40;;
37199;SDS011;23096;50.892;16.746;2024-02-23T06:14:13;1.80;;;1.30;;
37199;SDS011;23096;50.892;16.746;2024-02-23T06:16:39;1.70;;;1.20;;
37199;SDS011;23096;50.892;16.746;2024-02-23T06:19:05;1.90;;;1.40;;
37199;SDS011;23096;50.892;16.746;2024-02-23T06:21:32;2.00;;;1.50;;
37199;SDS011;23096;50.892;16.746;2024-02-23T06:23:57;2.30;;;1.30;;
37199;SDS011;23096;50.892;16.746;2024-02-23T06:26:23;1.30;;;0.90;;
37199;SDS011;23096;50.892;16.746;2024-02-23T06:28:48;2.30;;;1.30;;
37199;SDS011;23096;50.892;16.746;2024-02-23T06:31:14;1.90;;;1.40;;
37199;SDS011;23096;50.892;16.746;2024-02-23T06:33:40;1.60;;;1.10;;
37199;SDS011;23096;50.892;16.746;2024-02-23T06:36:09;2.40;;;1.50;;
37199;SDS011;23096;50.892;16.746;2024-02-23T06:38:34;2.20;;;1.40;;
37199;SDS011;23096;50.892;16.746;2024-02-23T06:41:00;1.20;;;0.80;;
37199;SDS011;23096;50.892;16.746;2024-02-23T06:43:26;1.10;;;1.00;;
37199;SDS011;23096;50.892;16.746;2024-02-23T06:45:51;1.30;;;1.00;;
37199;SDS011;23096;50.892;16.746;2024-02-23T06:48:17;2.00;;;1.20;;
37199;SDS011;23096;50.892;16.746;2024-02-23T06:50:43;2.60;;;1.50;;
37199;SDS011;23096;50.892;16.746;2024-02-23T06:53:08;1.50;;;1.00;;
37199;SDS011;23096;50.892;16.746;2024-02-23T06:55:34;1.70;;;1.10;;
37199;SDS011;23096;50.892;16.746;2024-02-23T06:58:01;1.30;;;1.00;;
37199;SDS011;23096;50.892;16.746;2024-02-23T07:00:27;1.30;;;1.00;;
37199;SDS011;23096;50.892;16.746;2024-02-23T07:02:53;3.00;;;1.30;;
37199;SDS011;23096;50.892;16.746;2024-02-23T07:05:19;1.80;;;0.90;;
37199;SDS011;23096;50.892;16.746;2024-02-23T07:07:44;1.40;;;1.30;;
37199;SDS011;23096;50.892;16.746;2024-02-23T07:10:10;1.20;;;1.00;;
37199;SDS011;23096;50.892;16.746;2024-02-23T07:12:37;2.10;;;1.30;;
37199;SDS011;23096;50.892;16.746;2024-02-23T07:15:03;2.30;;;1.20;;
37199;SDS011;23096;50.892;16.746;2024-02-23T07:17:28;1.20;;;1.10;;
37199;SDS011;23096;50.892;16.746;2024-02-23T07:19:54;1.90;;;1.30;;
37199;SDS011;23096;50.892;16.746;2024-02-23T07:22:21;1.40;;;1.10;;
37199;SDS011;23096;50.892;16.746;2024-02-23T07:24:46;2.00;;;1.10;;
37199;SDS011;23096;50.892;16.746;2024-02-23T07:27:14;1.80;;;1.60;;
37199;SDS011;23096;50.892;16.746;2024-02-23T07:29:40;2.50;;;1.80;;
37199;SDS011;23096;50.892;16.746;2024-02-23T07:32:05;2.30;;;1.70;;
37199;SDS011;23096;50.892;16.746;2024-02-23T07:34:31;2.30;;;1.80;;
37199;SDS011;23096;50.892;16.746;2024-02-23T07:36:57;2.60;;;2.10;;
37199;SDS011;23096;50.892;16.746;2024-02-23T07:39:22;2.10;;;1.50;;
37199;SDS011;23096;50.892;16.746;2024-02-23T07:41:48;1.70;;;1.50;;
37199;SDS011;23096;50.892;16.746;2024-02-23T07:44:14;2.10;;;1.50;;
37199;SDS011;23096;50.892;16.746;2024-02-23T07:46:39;1.50;;;1.20;;
37199;SDS011;23096;50.892;16.746;2024-02-23T07:49:07;3.60;;;1.50;;
37199;SDS011;23096;50.892;16.746;2024-02-23T07:51:32;2.60;;;1.50;;
37199;SDS011;23096;50.892;16.746;2024-02-23T07:53:58;1.90;;;1.60;;
37199;SDS011;23096;50.892;16.746;2024-02-23T07:56:23;3.50;;;1.40;;
37199;SDS011;23096;50.892;16.746;2024-02-23T07:58:49;2.50;;;1.40;;
37199;SDS011;23096;50.892;16.746;2024-02-23T08:01:14;1.50;;;1.40;;
37199;SDS011;23096;50.892;16.746;2024-02-23T08:03:40;2.10;;;1.40;;
37199;SDS011;23096;50.892;16.746;2024-02-23T08:06:06;1.40;;;1.10;;
37199;SDS011;23096;50.892;16.746;2024-02-23T08:08:32;2.20;;;1.20;;
37199;SDS011;23096;50.892;16.746;2024-02-23T08:11:04;1.40;;;0.90;;
37199;SDS011;23096;50.892;16.746;2024-02-23T08:13:32;2.70;;;1.20;;
37199;SDS011;23096;50.892;16.746;2024-02-23T08:15:57;1.70;;;1.00;;
37199;SDS011;23096;50.892;16.746;2024-02-23T08:18:23;2.10;;;1.10;;
37199;SDS011;23096;50.892;16.746;2024-02-23T08:20:49;1.10;;;0.80;;
37199;SDS011;23096;50.892;16.746;2024-02-23T08:23:15;1.00;;;0.90;;
37199;SDS011;23096;50.892;16.746;2024-02-23T08:25:40;1.20;;;1.10;;
37199;SDS011;23096;50.892;16.746;2024-02-23T08:28:07;1.70;;;1.40;;
37199;SDS011;23096;50.892;16.746;2024-02-23T08:30:33;2.10;;;1.20;;
37199;SDS011;23096;50.892;16.746;2024-02-23T08:32:59;0.80;;;0.80;;
37199;SDS011;23096;50.892;16.746;2024-02-23T08:35:25;1.90;;;1.30;;
37199;SDS011;23096;50.892;16.746;2024-02-23T08:37:50;2.30;;;1.40;;
37199;SDS011;23096;50.892;16.746;2024-02-23T08:40:16;1.30;;;1.00;;
37199;SDS011;23096;50.892;16.746;2024-02-23T08:42:41;1.20;;;1.10;;
37199;SDS011;23096;50.892;16.746;2024-02-23T08:45:07;1.20;;;1.10;;
37199;SDS011;23096;50.892;16.746;2024-02-23T08:47:35;0.90;;;0.90;;
37199;SDS011;23096;50.892;16.746;2024-02-23T08:50:01;2.40;;;1.10;;
37199;SDS011;23096;50.892;16.746;2024-02-23T08:52:27;1.80;;;1.20;;
37199;SDS011;23096;50.892;16.746;2024-02-23T08:54:52;2.50;;;1.50;;
37199;SDS011;23096;50.892;16.746;2024-02-23T08:57:18;2.30;;;1.10;;
37199;SDS011;23096;50.892;16.746;2024-02-23T08:59:45;1.50;;;1.20;;
37199;SDS011;23096;50.892;16.746;2024-02-23T09:02:11;1.10;;;1.00;;
37199;SDS011;23096;50.892;16.746;2024-02-23T09:04:37;3.00;;;1.50;;
37199;SDS011;23096;50.892;16.746;2024-02-23T09:07:03;1.40;;;0.80;;
37199;SDS011;23096;50.892;16.746;2024-02-23T09:09:28;1.00;;;1.00;;
37199;SDS011;23096;50.892;16.746;2024-02-23T09:11:54;2.20;;;1.30;;
37199;SDS011;23096;50.892;16.746;2024-02-23T09:14:19;1.40;;;1.00;;
37199;SDS011;23096;50.892;16.746;2024-02-23T09:16:45;1.80;;;1.40;;
37199;SDS011;23096;50.892;16.746;2024-02-23T09:19:12;2.40;;;1.20;;
37199;SDS011;23096;50.892;16.746;2024-02-23T09:21:38;7.30;;;2.80;;
37199;SDS011;23096;50.892;16.746;2024-02-23T09:24:04;2.10;;;1.40;;
37199;SDS011;23096;50.892;16.746;2024-02-23T09:26:30;5.40;;;1.40;;
37199;SDS011;23096;50.892;16.746;2024-02-23T09:28:56;3.20;;;2.10;;
37199;SDS011;23096;50.892;16.746;2024-02-23T09:31:22;3.90;;;2.10;;
37199;SDS011;23096;50.892;16.746;2024-02-23T09:33:47;5.20;;;2.00;;
37199;SDS011;23096;50.892;16.746;2024-02-23T09:36:16;4.20;;;2.00;;
37199;SDS011;23096;50.892;16.746;2024-02-23T09:38:42;3.50;;;2.20;;
37199;SDS011;23096;50.892;16.746;2024-02-23T09:41:11;5.30;;;3.10;;
37199;SDS011;23096;50.892;16.746;2024-02-23T09:43:44;7.60;;;2.60;;
37199;SDS011;23096;50.892;16.746;2024-02-23T09:46:12;4.80;;;3.00;;
37199;SDS011;23096;50.892;16.746;2024-02-23T09:48:40;3.20;;;1.70;;
37199;SDS011;23096;50.892;16.746;2024-02-23T09:51:08;1.80;;;1.50;;
37199;SDS011;23096;50.892;16.746;2024-02-23T09:53:36;3.60;;;1.70;;
37199;SDS011;23096;50.892;16.746;2024-02-23T09:56:03;3.70;;;1.10;;
37199;SDS011;23096;50.892;16.746;2024-02-23T09:58:33;1.60;;;0.50;;
37199;SDS011;23096;50.892;16.746;2024-02-23T10:01:00;7.00;;;2.90;;
37199;SDS011;23096;50.892;16.746;2024-02-23T10:03:27;5.10;;;2.30;;
37199;SDS011;23096;50.892;16.746;2024-02-23T10:05:55;6.20;;;2.30;;
37199;SDS011;23096;50.892;16.746;2024-02-23T10:08:24;4.50;;;2.60;;
37199;SDS011;23096;50.892;16.746;2024-02-23T10:10:50;7.00;;;2.30;;
37199;SDS011;23096;50.892;16.746;2024-02-23T10:13:19;9.20;;;2.30;;
37199;SDS011;23096;50.892;16.746;2024-02-23T10:15:48;3.10;;;2.00;;
37199;SDS011;23096;50.892;16.746;2024-02-23T10:18:14;1.40;;;1.30;;
37199;SDS011;23096;50.892;16.746;2024-02-23T10:20:40;3.70;;;1.70;;
37199;SDS011;23096;50.892;16.746;2024-02-23T10:23:07;2.60;;;1.40;;
37199;SDS011;23096;50.892;16.746;2024-02-23T10:25:34;4.10;;;1.10;;
37199;SDS011;23096;50.892;16.746;2024-02-23T10:28:05;1.90;;;1.10;;
37199;SDS011;23096;50.892;16.746;2024-02-23T10:30:32;3.40;;;2.30;;
37199;SDS011;23096;50.892;16.746;2024-02-23T10:32:58;2.30;;;1.50;;
37199;SDS011;23096;50.892;16.746;2024-02-23T10:35:25;3.40;;;0.90;;
37199;SDS011;23096;50.892;16.746;2024-02-23T10:37:52;0.80;;;0.70;;
37199;SDS011;23096;50.892;16.746;2024-02-23T10:40:20;6.30;;;1.50;;
37199;SDS011;23096;50.892;16.746;2024-02-23T10:42:48;7.00;;;2.30;;
37199;SDS011;23096;50.892;16.746;2024-02-23T10:45:19;16.90;;;5.10;;
37199;SDS011;23096;50.892;16.746;2024-02-23T10:47:49;18.00;;;5.80;;
37199;SDS011;23096;50.892;16.746;2024-02-23T10:50:16;34.30;;;15.10;;
37199;SDS011;23096;50.892;16.746;2024-02-23T10:52:44;24.70;;;10.20;;
37199;SDS011;23096;50.892;16.746;2024-02-23T10:55:12;13.90;;;5.90;;
37199;SDS011;23096;50.892;16.746;2024-02-23T10:57:37;11.30;;;4.20;;
37199;SDS011;23096;50.892;16.746;2024-02-23T11:00:04;7.70;;;3.20;;
37199;SDS011;23096;50.892;16.746;2024-02-23T11:02:34;10.30;;;2.50;;
37199;SDS011;23096;50.892;16.746;2024-02-23T11:05:03;11.00;;;2.60;;
37199;SDS011;23096;50.892;16.746;2024-02-23T11:07:30;4.30;;;1.70;;
37199;SDS011;23096;50.892;16.746;2024-02-23T11:09:58;2.70;;;1.80;;
37199;SDS011;23096;50.892;16.746;2024-02-23T11:12:25;2.20;;;1.00;;
37199;SDS011;23096;50.892;16.746;2024-02-23T11:14:57;5.40;;;1.50;;
37199;SDS011;23096;50.892;16.746;2024-02-23T11:17:29;3.20;;;1.80;;
37199;SDS011;23096;50.892;16.746;2024-02-23T11:19:56;2.10;;;0.90;;
37199;SDS011;23096;50.892;16.746;2024-02-23T11:22:31;2.60;;;1.00;;
37199;SDS011;23096;50.892;16.746;2024-02-23T11:25:08;1.70;;;0.90;;
37199;SDS011;23096;50.892;16.746;2024-02-23T11:27:35;2.90;;;1.60;;
37199;SDS011;23096;50.892;16.746;2024-02-23T11:30:03;2.50;;;1.30;;
37199;SDS011;23096;50.892;16.746;2024-02-23T11:32:40;2.20;;;1.30;;
37199;SDS011;23096;50.892;16.746;2024-02-23T11:35:08;3.10;;;1.20;;
37199;SDS011;23096;50.892;16.746;2024-02-23T11:37:53;2.40;;;0.80;;
37199;SDS011;23096;50.892;16.746;2024-02-23T11:40:27;1.50;;;0.90;;
37199;SDS011;23096;50.892;16.746;2024-02-23T11:42:56;1.70;;;1.00;;
37199;SDS011;23096;50.892;16.746;2024-02-23T11:45:23;2.20;;;1.20;;
37199;SDS011;23096;50.892;16.746;2024-02-23T11:47:49;1.40;;;1.10;;
37199;SDS011;23096;50.892;16.746;2024-02-23T11:50:14;1.70;;;1.20;;
37199;SDS011;23096;50.892;16.746;2024-02-23T11:52:46;1.70;;;1.00;;
37199;SDS011;23096;50.892;16.746;2024-02-23T11:55:12;3.30;;;0.70;;
37199;SDS011;23096;50.892;16.746;2024-02-23T11:57:39;2.10;;;0.80;;
37199;SDS011;23096;50.892;16.746;2024-02-23T12:00:05;1.60;;;0.70;;
37199;SDS011;23096;50.892;16.746;2024-02-23T12:02:35;2.30;;;1.10;;
37199;SDS011;23096;50.892;16.746;2024-02-23T12:05:01;1.80;;;0.90;;
37199;SDS011;23096;50.892;16.746;2024-02-23T12:07:31;2.20;;;0.90;;
37199;SDS011;23096;50.892;16.746;2024-02-23T12:09:58;4.10;;;1.90;;
37199;SDS011;23096;50.892;16.746;2024-02-23T12:12:27;2.00;;;1.30;;
37199;SDS011;23096;50.892;16.746;2024-02-23T12:14:52;0.60;;;0.50;;
37199;SDS011;23096;50.892;16.746;2024-02-23T12:17:18;1.70;;;0.90;;
37199;SDS011;23096;50.892;16.746;2024-02-23T12:19:44;1.60;;;0.80;;
37199;SDS011;23096;50.892;16.746;2024-02-23T12:22:12;0.90;;;0.60;;
37199;SDS011;23096;50.892;16.746;2024-02-23T12:24:39;3.40;;;0.70;;
37199;SDS011;23096;50.892;16.746;2024-02-23T12:27:06;2.10;;;0.90;;
37199;SDS011;23096;50.892;16.746;2024-02-23T12:29:32;1.80;;;1.00;;
37199;SDS011;23096;50.892;16.746;2024-02-23T12:32:04;1.70;;;0.90;;
37199;SDS011;23096;50.892;16.746;2024-02-23T12:34:33;2.90;;;1.50;;
37199;SDS011;23096;50.892;16.746;2024-02-23T12:37:01;4.00;;;2.10;;
37199;SDS011;23096;50.892;16.746;2024-02-23T12:39:29;2.20;;;1.70;;
37199;SDS011;23096;50.892;16.746;2024-02-23T12:41:54;4.30;;;2.30;;
37199;SDS011;23096;50.892;16.746;2024-02-23T12:44:22;5.00;;;1.90;;
37199;SDS011;23096;50.892;16.746;2024-02-23T12:46:47;2.60;;;1.40;;
37199;SDS011;23096;50.892;16.746;2024-02-23T12:52:41;5.60;;;2.60;;
37199;SDS011;23096;50.892;16.746;2024-02-23T12:55:07;6.80;;;3.80;;
37199;SDS011;23096;50.892;16.746;2024-02-23T12:57:33;6.70;;;2.90;;
37199;SDS011;23096;50.892;16.746;2024-02-23T12:59:58;8.60;;;4.60;;
37199;SDS011;23096;50.892;16.746;2024-02-23T13:02:24;6.00;;;2.90;;
37199;SDS011;23096;50.892;16.746;2024-02-23T13:04:50;5.80;;;2.60;;
37199;SDS011;23096;50.892;16.746;2024-02-23T13:07:15;4.50;;;2.20;;
37199;SDS011;23096;50.892;16.746;2024-02-23T13:09:42;6.10;;;2.30;;
37199;SDS011;23096;50.892;16.746;2024-02-23T13:12:08;4.90;;;1.70;;
37199;SDS011;23096;50.892;16.746;2024-02-23T13:14:33;3.10;;;1.10;;
37199;SDS011;23096;50.892;16.746;2024-02-23T13:16:59;2.90;;;1.50;;
37199;SDS011;23096;50.892;16.746;2024-02-23T13:19:24;5.20;;;1.60;;
37199;SDS011;23096;50.892;16.746;2024-02-23T13:21:50;2.10;;;1.20;;
37199;SDS011;23096;50.892;16.746;2024-02-23T13:24:16;3.10;;;1.50;;
37199;SDS011;23096;50.892;16.746;2024-02-23T13:26:42;3.00;;;1.70;;
37199;SDS011;23096;50.892;16.746;2024-02-23T13:29:08;3.00;;;1.70;;
37199;SDS011;23096;50.892;16.746;2024-02-23T13:31:33;3.20;;;1.60;;
37199;SDS011;23096;50.892;16.746;2024-02-23T13:33:59;1.90;;;1.10;;
37199;SDS011;23096;50.892;16.746;2024-02-23T13:36:25;4.40;;;1.50;;
37199;SDS011;23096;50.892;16.746;2024-02-23T13:38:50;1.60;;;1.40;;
37199;SDS011;23096;50.892;16.746;2024-02-23T13:41:16;3.40;;;1.50;;
37199;SDS011;23096;50.892;16.746;2024-02-23T13:43:43;2.40;;;1.60;;
37199;SDS011;23096;50.892;16.746;2024-02-23T13:46:08;2.70;;;1.30;;
37199;SDS011;23096;50.892;16.746;2024-02-23T13:48:35;3.30;;;1.90;;
37199;SDS011;23096;50.892;16.746;2024-02-23T13:51:01;6.60;;;2.90;;
37199;SDS011;23096;50.892;16.746;2024-02-23T13:53:29;2.40;;;1.80;;
37199;SDS011;23096;50.892;16.746;2024-02-23T13:55:56;3.70;;;2.00;;
37199;SDS011;23096;50.892;16.746;2024-02-23T13:58:22;5.10;;;2.60;;
37199;SDS011;23096;50.892;16.746;2024-02-23T14:00:48;5.60;;;2.50;;
37199;SDS011;23096;50.892;16.746;2024-02-23T14:03:15;13.00;;;2.10;;
37199;SDS011;23096;50.892;16.746;2024-02-23T14:05:43;2.40;;;1.40;;
37199;SDS011;23096;50.892;16.746;2024-02-23T14:08:12;1.90;;;1.20;;
37199;SDS011;23096;50.892;16.746;2024-02-23T14:10:39;2.50;;;1.60;;
37199;SDS011;23096;50.892;16.746;2024-02-23T14:13:05;2.20;;;1.50;;
37199;SDS011;23096;50.892;16.746;2024-02-23T14:15:31;3.70;;;2.20;;
37199;SDS011;23096;50.892;16.746;2024-02-23T14:17:57;5.40;;;2.40;;
37199;SDS011;23096;50.892;16.746;2024-02-23T14:20:23;4.10;;;2.00;;
37199;SDS011;23096;50.892;16.746;2024-02-23T14:22:48;5.50;;;2.50;;
37199;SDS011;23096;50.892;16.746;2024-02-23T14:25:15;8.40;;;3.60;;
37199;SDS011;23096;50.892;16.746;2024-02-23T14:27:41;3.80;;;2.20;;
37199;SDS011;23096;50.892;16.746;2024-02-23T14:30:07;3.80;;;2.40;;
37199;SDS011;23096;50.892;16.746;2024-02-23T14:32:33;4.50;;;2.90;;